Time;durP1;ratioP1;P1;durP2;ratioP2;P2;SDS_P1;SDS_P2;PMS_P1;PMS_P2;Temp;Humidity;BMP_temperature;BMP_pressure;BME280_temperature;BME280_humidity;BME280_pressure;Samples;Min_cycle;Max_cycle;Signal;HPM_P1;HPM_P2
2022/11/20 00:00:11;;;;;;;32.72;15.60;;;;;;;;;;4995302;28;20030;-77
2022/11/20 00:02:37;;;;;;;31.63;15.27;;;;;;;;;;5013045;28;20040;-77
2022/11/20 00:05:03;;;;;;;31.58;14.50;;;;;;;;;;5013016;28;20034;-77
2022/11/20 00:07:30;;;;;;;30.55;13.82;;;;;;;;;;5012787;28;20030;-76
2022/11/20 00:09:56;;;;;;;26.83;12.50;;;;;;;;;;5012845;28;20030;-77
2022/11/20 00:12:22;;;;;;;25.70;11.82;;;;;;;;;;5012836;28;20022;-77
2022/11/20 00:14:48;;;;;;;25.02;11.25;;;;;;;;;;5025964;28;20026;-77
2022/11/20 00:17:14;;;;;;;28.80;13.65;;;;;;;;;;5029596;28;20074;-77
2022/11/20 00:19:40;;;;;;;27.65;14.38;;;;;;;;;;5031974;28;20025;-77
2022/11/20 00:22:06;;;;;;;26.92;13.38;;;;;;;;;;5030342;28;20032;-77
2022/11/20 00:24:32;;;;;;;29.73;15.07;;;;;;;;;;5031931;28;20029;-76
2022/11/20 00:26:58;;;;;;;32.30;13.50;;;;;;;;;;5026845;28;20381;-77
2022/11/20 00:29:24;;;;;;;27.88;12.75;;;;;;;;;;5014885;28;20432;-77
2022/11/20 00:31:50;;;;;;;35.38;14.18;;;;;;;;;;5016005;28;20695;-77
2022/11/20 00:34:16;;;;;;;30.00;13.48;;;;;;;;;;5032323;28;20040;-77
2022/11/20 00:36:42;;;;;;;34.55;14.60;;;;;;;;;;5031856;28;20026;-77
2022/11/20 00:39:08;;;;;;;34.45;14.63;;;;;;;;;;5014403;28;20025;-77
2022/11/20 00:41:34;;;;;;;29.92;13.57;;;;;;;;;;5031137;28;20480;-77
2022/11/20 00:44:00;;;;;;;32.95;14.32;;;;;;;;;;5031753;28;20111;-77
2022/11/20 00:46:27;;;;;;;32.78;14.38;;;;;;;;;;5031778;28;20089;-77
2022/11/20 00:48:53;;;;;;;32.38;13.95;;;;;;;;;;5032008;28;20018;-77
2022/11/20 00:51:21;;;;;;;33.47;13.65;;;;;;;;;;5031374;28;20121;-77
2022/11/20 00:53:49;;;;;;;32.50;13.70;;;;;;;;;;5031606;28;20048;-77
2022/11/20 00:56:17;;;;;;;27.45;12.95;;;;;;;;;;5031484;28;20513;-77
2022/11/20 00:58:43;;;;;;;27.35;12.35;;;;;;;;;;5013835;28;20107;-76
2022/11/20 01:01:09;;;;;;;31.23;13.65;;;;;;;;;;5031459;28;20029;-77
2022/11/20 01:03:37;;;;;;;25.23;11.75;;;;;;;;;;5031608;28;20029;-77
2022/11/20 01:06:04;;;;;;;26.45;12.52;;;;;;;;;;5013476;28;20033;-77
2022/11/20 01:08:31;;;;;;;26.85;12.95;;;;;;;;;;5031395;28;20028;-77
2022/11/20 01:11:01;;;;;;;30.77;14.30;;;;;;;;;;5013211;28;20063;-77
2022/11/20 01:13:36;;;;;;;29.27;13.05;;;;;;;;;;5031621;28;20021;-77
2022/11/20 01:16:05;;;;;;;29.38;12.43;;;;;;;;;;5026997;28;20029;-77
2022/11/20 01:18:31;;;;;;;36.53;15.63;;;;;;;;;;5031442;28;20097;-77
2022/11/20 01:21:24;;;;;;;33.63;14.68;;;;;;;;;;5030574;28;20025;-77
2022/11/20 01:23:50;;;;;;;33.75;13.60;;;;;;;;;;5019666;28;20056;-77
2022/11/20 01:26:18;;;;;;;27.80;13.25;;;;;;;;;;5029482;28;20040;-77
2022/11/20 01:28:44;;;;;;;27.02;12.05;;;;;;;;;;5024900;28;20075;-77
2022/11/20 01:31:14;;;;;;;25.00;11.73;;;;;;;;;;5030719;28;20040;-77
2022/11/20 01:33:41;;;;;;;25.30;11.80;;;;;;;;;;5012325;28;20030;-77
2022/11/20 01:36:08;;;;;;;32.15;12.35;;;;;;;;;;5011528;28;20026;-77
2022/11/20 01:38:34;;;;;;;30.38;12.32;;;;;;;;;;4993989;28;20025;-77
2022/11/20 01:41:00;;;;;;;24.38;12.05;;;;;;;;;;5030713;28;20079;-77
2022/11/20 01:43:26;;;;;;;27.25;12.55;;;;;;;;;;5031478;28;20026;-76
2022/11/20 01:46:11;;;;;;;28.75;11.60;;;;;;;;;;4997146;28;20041;-77
2022/11/20 01:48:43;;;;;;;24.83;10.65;;;;;;;;;;5031669;28;20041;-77
2022/11/20 01:51:15;;;;;;;25.77;11.57;;;;;;;;;;5030897;28;20032;-77
2022/11/20 01:53:43;;;;;;;28.33;12.32;;;;;;;;;;5034256;28;20128;-77
2022/11/20 01:56:10;;;;;;;27.50;11.32;;;;;;;;;;5034987;28;20037;-77
2022/11/20 01:58:38;;;;;;;24.33;11.05;;;;;;;;;;5017460;28;20116;-77
2022/11/20 02:01:04;;;;;;;24.70;11.15;;;;;;;;;;5034964;28;20036;-77
2022/11/20 02:03:31;;;;;;;26.92;11.13;;;;;;;;;;5017199;28;20087;-77
2022/11/20 02:05:57;;;;;;;36.60;12.48;;;;;;;;;;5035009;28;20029;-76
2022/11/20 02:08:24;;;;;;;27.95;11.13;;;;;;;;;;5034902;28;20350;-77
2022/11/20 02:10:50;;;;;;;29.30;11.27;;;;;;;;;;5034931;28;20033;-77
2022/11/20 02:16:01;;;;;;;24.92;10.82;;;;;;;;;;5030566;28;20384;-76
2022/11/20 02:18:27;;;;;;;25.55;11.70;;;;;;;;;;5034631;28;20108;-76
2022/11/20 02:21:08;;;;;;;24.17;11.40;;;;;;;;;;5033503;28;20026;-76
2022/11/20 02:23:52;;;;;;;32.57;12.50;;;;;;;;;;5024665;28;20116;-76
2022/11/20 02:26:19;;;;;;;28.83;11.90;;;;;;;;;;5033639;28;20722;-77
2022/11/20 02:28:45;;;;;;;44.05;14.85;;;;;;;;;;5016764;28;20056;-76
2022/11/20 02:31:11;;;;;;;36.97;14.85;;;;;;;;;;5016557;28;20439;-76
2022/11/20 02:33:37;;;;;;;34.38;13.30;;;;;;;;;;5015510;28;20483;-76
2022/11/20 02:36:03;;;;;;;29.40;12.85;;;;;;;;;;5014593;28;20035;-76
2022/11/20 02:38:29;;;;;;;29.58;13.23;;;;;;;;;;4996965;28;20487;-76
2022/11/20 02:40:55;;;;;;;32.95;12.48;;;;;;;;;;5033168;28;20033;-76
2022/11/20 02:43:21;;;;;;;28.42;12.73;;;;;;;;;;5034350;28;20059;-76
2022/11/20 02:45:47;;;;;;;29.05;12.75;;;;;;;;;;5016427;28;20053;-77
2022/11/20 02:48:13;;;;;;;27.52;12.38;;;;;;;;;;5016431;28;20427;-76
2022/11/20 02:50:40;;;;;;;33.40;13.48;;;;;;;;;;5034254;28;20025;-76
2022/11/20 02:53:06;;;;;;;32.45;13.18;;;;;;;;;;5034023;28;20763;-77
2022/11/20 02:55:32;;;;;;;36.17;13.55;;;;;;;;;;5033842;28;20049;-76
2022/11/20 02:57:58;;;;;;;29.55;13.05;;;;;;;;;;5033954;28;20053;-76
2022/11/20 03:00:24;;;;;;;31.33;13.15;;;;;;;;;;5016402;28;20029;-77
2022/11/20 03:02:50;;;;;;;30.40;13.07;;;;;;;;;;5033807;28;20029;-77
2022/11/20 03:05:17;;;;;;;33.03;11.52;;;;;;;;;;5033842;28;20099;-77
2022/11/20 03:07:44;;;;;;;31.27;12.20;;;;;;;;;;5033677;28;20033;-76
2022/11/20 03:10:10;;;;;;;28.52;11.18;;;;;;;;;;5033591;28;20044;-76
2022/11/20 03:12:36;;;;;;;22.52;10.52;;;;;;;;;;5015856;28;20049;-77
2022/11/20 03:15:02;;;;;;;27.08;10.40;;;;;;;;;;5030030;28;20143;-77
2022/11/20 03:17:29;;;;;;;27.35;10.63;;;;;;;;;;5014928;28;20503;-77
2022/11/20 03:19:55;;;;;;;23.23;10.38;;;;;;;;;;5033849;28;20480;-77
2022/11/20 03:22:21;;;;;;;22.48;10.27;;;;;;;;;;5010079;28;20037;-77
2022/11/20 03:24:47;;;;;;;22.25;10.05;;;;;;;;;;5033963;28;20349;-76
2022/11/20 03:27:13;;;;;;;27.13;10.30;;;;;;;;;;5025611;28;20032;-76
2022/11/20 03:29:39;;;;;;;34.78;12.00;;;;;;;;;;5013329;28;20388;-77
2022/11/20 03:32:05;;;;;;;45.00;14.43;;;;;;;;;;5019868;28;20045;-76
2022/11/20 03:34:31;;;;;;;40.17;13.18;;;;;;;;;;5015620;28;20021;-77
2022/11/20 03:36:58;;;;;;;33.90;12.90;;;;;;;;;;5033074;28;20116;-76
2022/11/20 03:39:24;;;;;;;30.35;11.77;;;;;;;;;;5032645;28;20026;-76
2022/11/20 03:41:50;;;;;;;31.10;11.13;;;;;;;;;;5033225;28;20040;-77
2022/11/20 03:44:16;;;;;;;27.13;11.00;;;;;;;;;;5034324;28;20025;-76
2022/11/20 03:46:42;;;;;;;32.45;11.55;;;;;;;;;;5034767;28;20147;-77
2022/11/20 03:49:08;;;;;;;26.45;11.20;;;;;;;;;;5034799;28;20029;-77
2022/11/20 03:51:35;;;;;;;26.48;11.25;;;;;;;;;;5016162;28;20392;-76
2022/11/20 03:54:03;;;;;;;25.05;10.82;;;;;;;;;;5032673;28;20042;-76
2022/11/20 03:56:30;;;;;;;28.08;11.73;;;;;;;;;;5032901;28;20025;-77
2022/11/20 03:58:57;;;;;;;29.88;12.13;;;;;;;;;;5032563;28;20025;-76
2022/11/20 04:01:27;;;;;;;28.27;11.80;;;;;;;;;;5032839;28;20033;-76
2022/11/20 04:03:54;;;;;;;40.85;17.52;;;;;;;;;;5032787;28;20030;-76
2022/11/20 04:06:24;;;;;;;52.72;20.50;;;;;;;;;;5032687;28;20038;-76
2022/11/20 04:08:50;;;;;;;43.38;18.60;;;;;;;;;;5032679;28;20026;-76
2022/11/20 04:11:19;;;;;;;42.90;16.08;;;;;;;;;;5032190;28;20041;-76
2022/11/20 04:13:50;;;;;;;27.70;12.27;;;;;;;;;;5032452;28;20028;-76
2022/11/20 04:16:16;;;;;;;24.38;10.38;;;;;;;;;;5031293;28;20486;-76
2022/11/20 04:18:43;;;;;;;23.98;10.95;;;;;;;;;;5031891;28;20032;-76
2022/11/20 04:21:09;;;;;;;19.30;9.32;;;;;;;;;;5031210;28;20040;-76
2022/11/20 04:23:35;;;;;;;22.10;9.65;;;;;;;;;;5003834;28;20420;-77
2022/11/20 04:26:08;;;;;;;22.25;10.40;;;;;;;;;;5018274;28;20476;-76
2022/11/20 04:28:35;;;;;;;22.00;9.45;;;;;;;;;;5014146;28;20037;-76
2022/11/20 04:31:06;;;;;;;22.33;9.90;;;;;;;;;;4994886;28;20030;-76
2022/11/20 04:33:32;;;;;;;29.08;13.98;;;;;;;;;;5030565;28;20040;-76
2022/11/20 04:36:02;;;;;;;29.80;15.95;;;;;;;;;;5035070;28;20036;-76
2022/11/20 04:38:28;;;;;;;27.58;11.82;;;;;;;;;;5051847;28;20021;-77
2022/11/20 04:40:57;;;;;;;33.28;15.02;;;;;;;;;;5032489;28;20076;-77
2022/11/20 04:43:23;;;;;;;39.88;17.25;;;;;;;;;;5031565;28;20453;-76
2022/11/20 04:45:52;;;;;;;32.45;15.10;;;;;;;;;;5031324;28;20499;-76
2022/11/20 04:48:18;;;;;;;30.08;14.63;;;;;;;;;;5031832;28;20082;-76
2022/11/20 04:50:44;;;;;;;31.58;12.85;;;;;;;;;;5031038;28;20040;-76
2022/11/20 04:53:10;;;;;;;34.83;14.00;;;;;;;;;;5031479;28;20032;-76
2022/11/20 04:55:36;;;;;;;34.25;14.85;;;;;;;;;;4992893;28;20073;-76
2022/11/20 04:58:02;;;;;;;27.83;12.48;;;;;;;;;;4991928;28;20137;-76
2022/11/20 05:00:29;;;;;;;25.17;10.50;;;;;;;;;;4990782;28;20040;-76
2022/11/20 05:02:55;;;;;;;25.05;11.00;;;;;;;;;;4974665;28;20033;-76
2022/11/20 05:05:21;;;;;;;20.90;10.02;;;;;;;;;;4992140;28;20026;-76
2022/11/20 05:07:47;;;;;;;26.90;11.10;;;;;;;;;;4992164;28;20424;-76
2022/11/20 05:10:13;;;;;;;23.48;9.82;;;;;;;;;;4992200;28;20572;-76
2022/11/20 05:12:39;;;;;;;21.13;9.77;;;;;;;;;;4992086;28;20022;-76
2022/11/20 05:15:05;;;;;;;21.10;9.77;;;;;;;;;;4988075;28;20026;-76
2022/11/20 05:17:31;;;;;;;23.10;10.10;;;;;;;;;;4992260;28;20149;-76
2022/11/20 05:19:57;;;;;;;21.23;9.40;;;;;;;;;;4990954;28;20026;-76
2022/11/20 05:22:23;;;;;;;28.40;11.98;;;;;;;;;;4989162;28;20018;-76
2022/11/20 05:24:49;;;;;;;26.65;10.73;;;;;;;;;;4992070;28;20030;-76
2022/11/20 05:27:15;;;;;;;29.20;11.55;;;;;;;;;;4986418;28;20414;-76
2022/11/20 05:29:41;;;;;;;28.95;11.73;;;;;;;;;;4996200;28;20037;-76
2022/11/20 05:32:09;;;;;;;27.42;12.15;;;;;;;;;;4989155;28;20033;-76
2022/11/20 05:34:35;;;;;;;27.02;12.00;;;;;;;;;;4976491;28;20035;-76
2022/11/20 05:37:01;;;;;;;25.48;12.00;;;;;;;;;;4976802;28;20038;-77
2022/11/20 05:39:27;;;;;;;32.08;14.43;;;;;;;;;;4983985;28;20030;-76
2022/11/20 05:44:38;;;;;;;29.00;12.50;;;;;;;;;;4996198;28;20033;-76
2022/11/20 05:47:04;;;;;;;24.08;11.32;;;;;;;;;;4995970;28;20077;-77
2022/11/20 05:49:30;;;;;;;20.75;9.95;;;;;;;;;;4996052;28;20488;-77
2022/11/20 05:51:56;;;;;;;23.45;10.73;;;;;;;;;;4996058;28;20366;-76
2022/11/20 05:54:22;;;;;;;24.33;10.38;;;;;;;;;;5009845;28;20404;-76
2022/11/20 05:56:48;;;;;;;25.13;10.43;;;;;;;;;;5035118;28;20694;-77
2022/11/20 05:59:14;;;;;;;21.40;9.73;;;;;;;;;;5035290;28;20469;-77
2022/11/20 06:01:41;;;;;;;21.77;10.30;;;;;;;;;;5035130;28;20431;-76
2022/11/20 06:04:07;;;;;;;24.20;10.98;;;;;;;;;;5035248;28;20079;-77
2022/11/20 06:06:33;;;;;;;21.48;9.98;;;;;;;;;;5034897;28;20117;-76
2022/11/20 06:08:59;;;;;;;22.15;9.77;;;;;;;;;;5034975;28;20034;-76
2022/11/20 06:11:25;;;;;;;22.90;10.30;;;;;;;;;;5034852;28;20478;-77
2022/11/20 06:13:51;;;;;;;37.30;16.20;;;;;;;;;;5034968;28;20034;-76
2022/11/20 06:16:19;;;;;;;49.42;19.50;;;;;;;;;;5030345;28;20091;-77
2022/11/20 06:18:45;;;;;;;74.82;29.17;;;;;;;;;;5034890;28;20032;-76
2022/11/20 06:21:19;;;;;;;85.97;31.65;;;;;;;;;;5031229;28;20067;-76
2022/11/20 06:23:45;;;;;;;61.70;22.92;;;;;;;;;;5016901;28;20150;-77
2022/11/20 06:26:13;;;;;;;39.47;15.98;;;;;;;;;;5033608;28;20033;-77
2022/11/20 06:28:39;;;;;;;37.25;14.07;;;;;;;;;;5034839;28;20122;-77
2022/11/20 06:31:06;;;;;;;30.35;12.82;;;;;;;;;;5034457;28;20056;-76
2022/11/20 06:33:32;;;;;;;38.35;16.30;;;;;;;;;;5034753;28;20077;-76
2022/11/20 06:35:59;;;;;;;40.40;17.38;;;;;;;;;;5034282;28;20146;-76
2022/11/20 06:38:25;;;;;;;44.40;19.52;;;;;;;;;;5033981;28;20045;-77
2022/11/20 06:40:51;;;;;;;51.03;20.70;;;;;;;;;;5015194;28;20022;-76
2022/11/20 06:43:17;;;;;;;48.08;23.48;;;;;;;;;;4996864;28;20030;-76
2022/11/20 06:45:43;;;;;;;46.28;22.38;;;;;;;;;;5033739;28;20025;-77
2022/11/20 06:48:10;;;;;;;46.72;23.10;;;;;;;;;;5016547;28;20033;-76
2022/11/20 06:50:39;;;;;;;48.85;22.30;;;;;;;;;;5016518;28;20051;-77
2022/11/20 06:53:05;;;;;;;41.53;20.63;;;;;;;;;;5016538;28;20471;-76
2022/11/20 06:55:32;;;;;;;44.55;20.23;;;;;;;;;;5034044;28;20049;-77
2022/11/20 06:57:58;;;;;;;37.35;17.17;;;;;;;;;;5033960;28;20029;-77
2022/11/20 07:00:24;;;;;;;34.40;14.63;;;;;;;;;;5033982;28;20048;-76
2022/11/20 07:02:50;;;;;;;33.35;13.80;;;;;;;;;;5029736;28;20490;-77
2022/11/20 07:05:16;;;;;;;30.30;11.75;;;;;;;;;;5027299;28;20384;-76
2022/11/20 07:07:42;;;;;;;22.20;11.13;;;;;;;;;;5026522;28;20477;-77
2022/11/20 07:10:09;;;;;;;21.48;10.25;;;;;;;;;;5004809;28;20038;-77
2022/11/20 07:12:35;;;;;;;23.67;10.40;;;;;;;;;;5024358;28;20036;-76
2022/11/20 07:15:01;;;;;;;24.30;10.20;;;;;;;;;;5023218;28;20042;-77
2022/11/20 07:17:27;;;;;;;22.27;10.88;;;;;;;;;;5016856;28;20441;-76
2022/11/20 07:19:53;;;;;;;22.02;10.55;;;;;;;;;;5004655;28;20018;-76
2022/11/20 07:22:21;;;;;;;21.23;10.55;;;;;;;;;;5023746;28;20030;-76
2022/11/20 07:24:48;;;;;;;21.83;10.15;;;;;;;;;;5028479;28;20109;-77
2022/11/20 07:27:14;;;;;;;20.63;9.85;;;;;;;;;;5028004;28;20026;-77
2022/11/20 07:29:40;;;;;;;21.52;10.10;;;;;;;;;;5025068;28;20525;-77
2022/11/20 07:32:06;;;;;;;19.67;9.95;;;;;;;;;;5033279;28;20068;-76
2022/11/20 07:34:32;;;;;;;20.23;9.82;;;;;;;;;;5028793;28;20058;-77
2022/11/20 07:36:58;;;;;;;21.05;9.82;;;;;;;;;;5028275;28;20056;-77
2022/11/20 07:39:24;;;;;;;23.35;10.90;;;;;;;;;;5031648;28;20041;-76
2022/11/20 07:41:50;;;;;;;21.85;10.43;;;;;;;;;;5031510;28;20037;-77
2022/11/20 07:44:16;;;;;;;24.92;10.88;;;;;;;;;;5029465;28;20206;-77
2022/11/20 07:46:42;;;;;;;26.88;13.52;;;;;;;;;;5032530;28;20041;-77
2022/11/20 07:49:08;;;;;;;29.83;15.27;;;;;;;;;;5032188;28;20033;-77
2022/11/20 07:51:34;;;;;;;38.50;18.02;;;;;;;;;;5031320;28;20025;-77
2022/11/20 07:54:00;;;;;;;45.22;19.65;;;;;;;;;;5031831;28;20401;-77
2022/11/20 07:56:26;;;;;;;38.88;18.65;;;;;;;;;;5028744;28;20433;-76
2022/11/20 07:58:52;;;;;;;38.20;18.17;;;;;;;;;;5031906;28;20025;-77
2022/11/20 08:01:18;;;;;;;38.58;18.38;;;;;;;;;;5025663;28;20048;-77
2022/11/20 08:03:44;;;;;;;32.40;15.63;;;;;;;;;;5030145;28;20033;-77
2022/11/20 08:06:10;;;;;;;31.65;13.98;;;;;;;;;;5024299;28;20075;-77
2022/11/20 08:08:36;;;;;;;25.13;12.60;;;;;;;;;;5031096;28;20014;-77
2022/11/20 08:16:31;;;;;;;29.77;13.10;;;;;;;;;;5030967;28;20029;-77
2022/11/20 08:18:57;;;;;;;31.67;15.27;;;;;;;;;;5028340;28;20440;-77
2022/11/20 08:21:23;;;;;;;35.15;15.27;;;;;;;;;;5011435;28;20395;-77
2022/11/20 08:23:50;;;;;;;33.10;15.15;;;;;;;;;;4995506;28;21287;-77
2022/11/20 08:26:16;;;;;;;34.17;15.57;;;;;;;;;;5027375;28;20100;-77
2022/11/20 08:28:42;;;;;;;38.67;18.67;;;;;;;;;;5009015;28;20028;-77
2022/11/20 08:31:09;;;;;;;39.67;18.33;;;;;;;;;;5027163;28;20025;-77
2022/11/20 08:33:36;;;;;;;32.65;15.70;;;;;;;;;;5022794;28;20026;-77
2022/11/20 08:36:03;;;;;;;39.35;17.15;;;;;;;;;;5010411;28;20087;-78
2022/11/20 08:38:30;;;;;;;43.47;21.40;;;;;;;;;;5026212;28;20087;-78
2022/11/20 08:43:48;;;;;;;52.55;23.40;;;;;;;;;;5027934;28;20079;-77
2022/11/20 08:46:15;;;;;;;44.28;19.35;;;;;;;;;;5030811;28;20380;-77
2022/11/20 08:48:41;;;;;;;39.05;18.05;;;;;;;;;;5023929;28;20029;-78
2022/11/20 08:51:07;;;;;;;35.80;18.27;;;;;;;;;;5004501;28;20038;-77
2022/11/20 08:53:33;;;;;;;41.78;18.20;;;;;;;;;;5025912;28;20080;-77
2022/11/20 08:55:59;;;;;;;41.20;18.98;;;;;;;;;;5029165;28;20136;-78
2022/11/20 08:58:25;;;;;;;36.38;17.88;;;;;;;;;;5005059;28;20063;-78
2022/11/20 09:00:52;;;;;;;43.45;20.98;;;;;;;;;;5019710;28;20032;-77
2022/11/20 09:03:18;;;;;;;47.53;20.77;;;;;;;;;;5021109;28;20396;-77
2022/11/20 09:05:44;;;;;;;45.05;22.05;;;;;;;;;;5020515;28;20101;-77
2022/11/20 09:08:10;;;;;;;51.22;24.88;;;;;;;;;;5004460;28;20079;-76
2022/11/20 09:10:39;;;;;;;50.55;24.35;;;;;;;;;;5023655;28;20087;-77
2022/11/20 09:13:05;;;;;;;47.25;23.25;;;;;;;;;;5020566;28;20479;-77
2022/11/20 09:15:32;;;;;;;46.63;23.65;;;;;;;;;;5025957;28;20053;-77
2022/11/20 09:18:00;;;;;;;44.67;22.58;;;;;;;;;;5031631;28;20116;-78
2022/11/20 09:20:26;;;;;;;44.80;20.83;;;;;;;;;;5029825;28;20063;-77
2022/11/20 09:22:52;;;;;;;39.95;19.27;;;;;;;;;;5008198;28;20439;-77
2022/11/20 09:25:18;;;;;;;38.63;20.02;;;;;;;;;;5013295;28;20057;-77
2022/11/20 09:27:45;;;;;;;38.17;19.80;;;;;;;;;;5024692;28;20037;-77
2022/11/20 09:30:12;;;;;;;38.63;19.80;;;;;;;;;;5031457;28;20029;-77
2022/11/20 09:32:42;;;;;;;43.50;19.50;;;;;;;;;;5019065;28;20034;-77
2022/11/20 09:35:08;;;;;;;39.42;18.92;;;;;;;;;;4994043;28;20473;-77
2022/11/20 09:37:34;;;;;;;41.70;19.55;;;;;;;;;;5016276;28;20025;-77
2022/11/20 09:40:00;;;;;;;41.10;18.98;;;;;;;;;;5006596;28;20436;-77
2022/11/20 09:42:33;;;;;;;36.22;19.42;;;;;;;;;;5022855;28;20018;-77
2022/11/20 09:44:59;;;;;;;41.10;18.85;;;;;;;;;;5025262;28;20527;-78
2022/11/20 09:47:32;;;;;;;38.28;20.45;;;;;;;;;;5026144;28;20104;-77
2022/11/20 09:50:00;;;;;;;45.45;20.60;;;;;;;;;;5021471;28;20056;-77
2022/11/20 09:52:47;;;;;;;42.25;20.83;;;;;;;;;;5013908;28;20022;-78
2022/11/20 09:55:14;;;;;;;43.10;19.40;;;;;;;;;;5008854;28;20087;-78
2022/11/20 09:57:43;;;;;;;35.42;18.42;;;;;;;;;;5013967;28;20153;-78
2022/11/20 10:00:13;;;;;;;35.80;18.48;;;;;;;;;;5019662;28;20037;-78
2022/11/20 10:02:43;;;;;;;39.67;19.23;;;;;;;;;;5004454;28;20361;-77
2022/11/20 10:05:13;;;;;;;39.47;18.55;;;;;;;;;;5021850;28;20609;-78
2022/11/20 10:07:45;;;;;;;41.30;18.92;;;;;;;;;;5021270;28;20032;-78
2022/11/20 10:10:15;;;;;;;42.38;20.65;;;;;;;;;;5019687;28;20060;-77
2022/11/20 10:12:41;;;;;;;37.88;19.25;;;;;;;;;;5011056;28;20448;-78
2022/11/20 10:15:23;;;;;;;38.13;18.88;;;;;;;;;;5025211;28;20100;-77
2022/11/20 10:18:04;;;;;;;40.28;19.27;;;;;;;;;;5008103;28;20376;-78
2022/11/20 10:20:43;;;;;;;48.97;22.85;;;;;;;;;;5029175;28;21666;-78
2022/11/20 10:23:12;;;;;;;40.90;21.17;;;;;;;;;;5013266;28;20087;-78
2022/11/20 10:25:40;;;;;;;42.40;22.23;;;;;;;;;;5031037;28;20036;-80
2022/11/20 10:28:14;;;;;;;41.25;21.63;;;;;;;;;;5035348;28;20071;-83
2022/11/20 10:30:44;;;;;;;48.03;22.17;;;;;;;;;;5035598;28;20037;-83
2022/11/20 10:33:23;;;;;;;41.10;21.08;;;;;;;;;;5030699;28;20022;-83
2022/11/20 10:35:52;;;;;;;37.47;20.42;;;;;;;;;;5015809;28;20068;-84
2022/11/20 10:38:24;;;;;;;38.75;19.73;;;;;;;;;;5022073;28;20026;-79
2022/11/20 10:40:53;;;;;;;38.30;20.85;;;;;;;;;;5029097;28;20036;-79
2022/11/20 10:43:34;;;;;;;45.78;21.65;;;;;;;;;;5015337;28;20026;-79
2022/11/20 10:46:11;;;;;;;44.40;20.42;;;;;;;;;;4997740;28;20492;-79
2022/11/20 10:48:38;;;;;;;40.75;20.85;;;;;;;;;;4997980;28;20030;-79
2022/11/20 10:51:23;;;;;;;44.85;21.15;;;;;;;;;;5016284;28;20049;-79
2022/11/20 10:53:56;;;;;;;45.78;21.70;;;;;;;;;;5028108;28;20432;-79
2022/11/20 10:56:35;;;;;;;43.10;21.98;;;;;;;;;;4997431;28;20057;-79
2022/11/20 10:59:20;;;;;;;43.28;21.63;;;;;;;;;;5010736;28;20384;-79
2022/11/20 11:01:46;;;;;;;45.72;22.92;;;;;;;;;;5018034;28;20022;-79
2022/11/20 11:04:24;;;;;;;43.70;22.20;;;;;;;;;;5015362;28;20022;-79
2022/11/20 11:06:51;;;;;;;52.67;24.35;;;;;;;;;;4997520;28;20038;-80
2022/11/20 11:09:20;;;;;;;47.15;23.17;;;;;;;;;;5015495;28;20041;-79
2022/11/20 11:11:46;;;;;;;44.00;23.40;;;;;;;;;;5014403;28;20080;-79
2022/11/20 11:14:13;;;;;;;47.22;23.08;;;;;;;;;;4996791;28;20084;-79
2022/11/20 11:16:54;;;;;;;42.63;21.75;;;;;;;;;;5026451;28;20026;-79
2022/11/20 11:19:20;;;;;;;54.95;26.67;;;;;;;;;;5022417;28;20388;-79
2022/11/20 11:21:59;;;;;;;45.40;24.67;;;;;;;;;;5026616;28;20380;-79
2022/11/20 11:24:25;;;;;;;49.50;24.88;;;;;;;;;;5034786;28;20824;-79
2022/11/20 11:26:52;;;;;;;49.10;26.13;;;;;;;;;;5036013;28;20061;-78
2022/11/20 11:29:18;;;;;;;53.65;26.88;;;;;;;;;;5035576;28;20021;-78
2022/11/20 11:31:45;;;;;;;51.72;25.25;;;;;;;;;;5031801;28;20504;-78
2022/11/20 11:34:15;;;;;;;50.08;25.40;;;;;;;;;;5012987;28;20056;-80
2022/11/20 11:36:42;;;;;;;51.35;25.13;;;;;;;;;;5032620;28;20025;-77
2022/11/20 11:39:19;;;;;;;52.72;26.10;;;;;;;;;;5007580;28;20509;-77
2022/11/20 11:41:45;;;;;;;53.45;25.45;;;;;;;;;;5022739;28;20488;-77
2022/11/20 11:47:27;;;;;;;64.85;31.17;;;;;;;;;;5023037;28;20029;-77
2022/11/20 11:50:12;;;;;;;66.43;30.80;;;;;;;;;;5008592;28;20029;-77
2022/11/20 11:52:55;;;;;;;58.78;27.63;;;;;;;;;;5031413;28;20025;-77
2022/11/20 11:55:27;;;;;;;52.25;24.98;;;;;;;;;;5028729;28;20140;-77
2022/11/20 11:57:56;;;;;;;47.80;22.73;;;;;;;;;;5011025;28;20099;-77
2022/11/20 12:00:23;;;;;;;45.20;22.73;;;;;;;;;;5012870;28;20050;-78
2022/11/20 12:02:54;;;;;;;44.60;21.50;;;;;;;;;;5030288;28;20041;-77
2022/11/20 12:05:20;;;;;;;43.65;21.35;;;;;;;;;;5026330;28;20028;-77
2022/11/20 12:07:55;;;;;;;42.20;21.77;;;;;;;;;;5027314;28;20031;-77
2022/11/20 12:10:23;;;;;;;44.17;22.85;;;;;;;;;;5022795;28;20029;-77
2022/11/20 12:12:52;;;;;;;42.72;22.73;;;;;;;;;;5021891;28;20356;-77
2022/11/20 12:15:26;;;;;;;48.97;24.13;;;;;;;;;;5023106;28;20025;-77
2022/11/20 12:17:52;;;;;;;49.08;23.63;;;;;;;;;;5029958;28;20028;-77
2022/11/20 12:20:18;;;;;;;46.65;22.25;;;;;;;;;;5015183;28;20033;-77
2022/11/20 12:22:56;;;;;;;47.13;23.20;;;;;;;;;;5025918;28;20048;-77
2022/11/20 12:25:31;;;;;;;45.45;23.00;;;;;;;;;;5011126;28;20412;-77
2022/11/20 12:27:57;;;;;;;44.42;22.27;;;;;;;;;;5013360;28;20428;-77
2022/11/20 12:30:24;;;;;;;41.85;23.08;;;;;;;;;;4996127;28;20101;-77
2022/11/20 12:33:09;;;;;;;47.08;23.08;;;;;;;;;;5013474;28;20045;-78
2022/11/20 12:35:54;;;;;;;39.92;19.92;;;;;;;;;;5037842;28;20020;-77
2022/11/20 12:38:20;;;;;;;43.33;22.83;;;;;;;;;;5033515;28;20025;-76
2022/11/20 12:40:51;;;;;;;40.55;21.20;;;;;;;;;;5031881;28;20105;-77
2022/11/20 12:46:17;;;;;;;40.47;20.75;;;;;;;;;;5032027;28;20087;-76
2022/11/20 12:49:09;;;;;;;48.85;23.77;;;;;;;;;;5014288;28;20108;-77
2022/11/20 12:51:47;;;;;;;44.30;20.92;;;;;;;;;;5010948;28;20037;-77
2022/11/20 12:54:19;;;;;;;63.65;28.50;;;;;;;;;;5031719;28;20117;-77
2022/11/20 12:57:07;;;;;;;76.32;31.15;;;;;;;;;;5031619;28;20037;-76
2022/11/20 12:59:48;;;;;;;50.42;24.40;;;;;;;;;;5031721;28;20024;-77
2022/11/20 13:02:20;;;;;;;48.45;24.52;;;;;;;;;;5031384;28;20034;-77
2022/11/20 13:04:46;;;;;;;;;;;;;;;;;;5032624;28;20041;-77
2022/11/20 13:07:14;;;;;;;42.78;21.90;;;;;;;;;;5031494;28;19905;-76
2022/11/20 13:09:43;;;;;;;43.58;23.00;;;;;;;;;;5032127;28;20060;-77
2022/11/20 13:12:23;;;;;;;43.25;23.00;;;;;;;;;;5036047;28;20021;-78
2022/11/20 13:15:11;;;;;;;44.47;22.90;;;;;;;;;;5034281;28;20021;-77
2022/11/20 13:17:40;;;;;;;45.75;22.58;;;;;;;;;;5028164;28;20032;-81
2022/11/20 13:20:06;;;;;;;47.67;23.38;;;;;;;;;;5031947;28;20472;-77
2022/11/20 13:22:48;;;;;;;47.58;24.58;;;;;;;;;;5024197;28;20147;-77
2022/11/20 13:25:23;;;;;;;43.45;23.38;;;;;;;;;;5002431;28;20133;-77
2022/11/20 13:27:50;;;;;;;41.15;22.42;;;;;;;;;;5029187;28;20432;-77
2022/11/20 13:30:20;;;;;;;47.03;23.77;;;;;;;;;;5028684;28;20758;-77
2022/11/20 13:32:49;;;;;;;47.28;25.77;;;;;;;;;;5000237;28;20018;-77
2022/11/20 13:35:24;;;;;;;50.17;23.98;;;;;;;;;;5028942;28;20024;-77
2022/11/20 13:37:59;;;;;;;48.38;23.75;;;;;;;;;;5013328;28;20040;-77
2022/11/20 13:40:25;;;;;;;48.97;25.58;;;;;;;;;;5012481;28;20373;-77
2022/11/20 13:42:57;;;;;;;48.78;25.50;;;;;;;;;;5029819;28;20112;-77
2022/11/20 13:45:27;;;;;;;46.03;24.67;;;;;;;;;;5030895;28;20029;-78
2022/11/20 13:47:54;;;;;;;48.65;26.10;;;;;;;;;;5029575;28;20017;-77
2022/11/20 13:50:22;;;;;;;49.28;24.98;;;;;;;;;;5034449;28;20037;-77
2022/11/20 13:52:51;;;;;;;51.38;25.45;;;;;;;;;;5034464;28;20111;-77
2022/11/20 13:55:24;;;;;;;49.72;25.90;;;;;;;;;;5034275;28;20068;-77
2022/11/20 13:57:56;;;;;;;52.13;26.30;;;;;;;;;;5033722;28;20448;-77
2022/11/20 14:00:23;;;;;;;52.38;25.60;;;;;;;;;;5033555;28;20155;-77
2022/11/20 14:03:02;;;;;;;57.00;27.63;;;;;;;;;;5034075;28;20117;-77
2022/11/20 14:05:28;;;;;;;52.28;28.13;;;;;;;;;;5034331;28;20034;-77
2022/11/20 14:07:55;;;;;;;52.28;25.95;;;;;;;;;;5033992;28;20037;-77
2022/11/20 14:10:25;;;;;;;53.15;25.70;;;;;;;;;;5033789;28;20033;-77
2022/11/20 14:12:52;;;;;;;51.22;25.83;;;;;;;;;;5032998;28;20052;-77
2022/11/20 14:15:31;;;;;;;54.72;25.88;;;;;;;;;;5012923;28;20025;-77
2022/11/20 14:17:58;;;;;;;52.63;26.83;;;;;;;;;;5015575;28;20083;-77
2022/11/20 14:20:28;;;;;;;49.67;25.08;;;;;;;;;;5031517;28;20124;-78
2022/11/20 14:22:55;;;;;;;51.13;26.17;;;;;;;;;;5033588;28;20035;-78
2022/11/20 14:25:27;;;;;;;56.08;26.75;;;;;;;;;;5032713;28;20091;-78
2022/11/20 14:28:00;;;;;;;54.90;25.20;;;;;;;;;;5032961;28;20022;-78
2022/11/20 14:30:36;;;;;;;56.65;26.40;;;;;;;;;;5033273;28;20080;-77
2022/11/20 14:33:03;;;;;;;52.22;25.42;;;;;;;;;;5031826;28;20526;-78
2022/11/20 14:35:31;;;;;;;54.65;26.48;;;;;;;;;;5034490;28;20368;-78
2022/11/20 14:37:58;;;;;;;54.80;26.77;;;;;;;;;;5033796;28;20448;-78
2022/11/20 14:40:25;;;;;;;57.10;26.88;;;;;;;;;;5031989;28;20039;-78
2022/11/20 14:42:51;;;;;;;57.28;27.85;;;;;;;;;;5015859;28;20033;-78
2022/11/20 14:45:19;;;;;;;63.08;28.85;;;;;;;;;;4995343;28;20091;-78